createdAt,value
2018-06-30T00:02:03.317Z,93.40
2018-06-30T00:05:06.471Z,93.50
2018-06-30T00:08:09.695Z,94.10
2018-06-30T00:11:12.889Z,94.20
2018-06-30T00:14:16.096Z,94.30
2018-06-30T00:17:19.328Z,93.80
2018-06-30T00:20:22.522Z,94.50
2018-06-30T00:23:26.250Z,94.40
2018-06-30T00:26:29.427Z,93.40
2018-06-30T00:29:32.662Z,93.30
2018-06-30T00:32:35.860Z,94.10
2018-06-30T00:35:39.039Z,93.50
2018-06-30T00:38:42.235Z,93.70
2018-06-30T00:41:45.435Z,93.70
2018-06-30T00:44:48.675Z,94.60
2018-06-30T00:47:51.891Z,93.90
2018-06-30T00:50:55.083Z,94.10
2018-06-30T00:53:58.314Z,94.40
2018-06-30T00:57:01.512Z,94.50
2018-06-30T01:00:04.879Z,94.50
2018-06-30T01:03:08.199Z,94.20
2018-06-30T01:06:11.400Z,94.70
2018-06-30T01:09:14.644Z,93.60
2018-06-30T01:12:17.827Z,93.70
2018-06-30T01:15:21.027Z,93.20
2018-06-30T01:18:24.225Z,92.10
2018-06-30T01:21:27.411Z,93.00
2018-06-30T01:24:30.610Z,93.40
2018-06-30T01:30:36.715Z,93.20
2018-06-30T01:33:39.896Z,92.80
2018-06-30T01:36:43.067Z,93.30
2018-06-30T01:39:46.240Z,93.10
2018-06-30T01:42:49.396Z,92.70
2018-06-30T01:45:52.567Z,94.10
2018-06-30T01:48:55.799Z,93.60
2018-06-30T01:51:58.979Z,94.40
2018-06-30T01:55:02.975Z,94.00
2018-06-30T01:58:07.023Z,93.90
2018-06-30T02:01:10.188Z,94.60
2018-06-30T02:04:13.343Z,94.70
2018-06-30T02:07:16.524Z,94.70
2018-06-30T02:10:19.695Z,95.80
2018-06-30T02:13:22.866Z,94.80
2018-06-30T02:16:27.015Z,94.90
2018-06-30T02:19:30.186Z,94.40
2018-06-30T02:22:33.358Z,94.00
2018-06-30T02:25:36.534Z,95.50
2018-06-30T02:28:39.720Z,94.20
2018-06-30T02:31:42.896Z,95.00
2018-06-30T02:34:46.614Z,94.90
2018-06-30T02:37:49.788Z,95.50
2018-06-30T02:40:53.027Z,96.30
2018-06-30T02:43:56.194Z,95.00
2018-06-30T02:46:59.363Z,96.10
2018-06-30T02:50:02.522Z,95.30
2018-06-30T02:53:06.300Z,95.10
2018-06-30T02:56:09.506Z,95.10
2018-06-30T02:59:12.675Z,95.00
2018-06-30T03:02:15.855Z,94.50
2018-06-30T03:05:19.018Z,95.50
2018-06-30T03:08:22.211Z,94.20
2018-06-30T03:11:25.382Z,94.20
2018-06-30T03:14:28.684Z,94.00
2018-06-30T03:17:31.876Z,93.80
2018-06-30T03:20:35.047Z,94.20
2018-06-30T03:23:38.238Z,92.60
2018-06-30T03:26:41.399Z,92.90
2018-06-30T03:29:44.636Z,92.80
2018-06-30T03:32:47.820Z,91.20
2018-06-30T03:35:50.982Z,91.00
2018-06-30T03:38:54.161Z,91.20
2018-06-30T03:41:57.333Z,89.90
2018-06-30T03:45:00.514Z,89.60
2018-06-30T03:48:03.690Z,89.60
2018-06-30T03:51:06.903Z,89.30
2018-06-30T03:54:10.080Z,88.90
2018-06-30T03:57:13.264Z,89.20
2018-06-30T04:00:16.428Z,88.80
2018-06-30T04:03:19.616Z,89.20
2018-06-30T04:06:22.824Z,88.00
2018-06-30T04:09:26.010Z,88.70
2018-06-30T04:12:29.206Z,87.90
2018-06-30T04:15:33.271Z,86.20
2018-06-30T04:18:36.451Z,85.20
2018-06-30T04:21:39.627Z,82.40
2018-06-30T04:24:42.790Z,79.30
2018-06-30T04:27:46.004Z,76.10
2018-06-30T04:30:49.172Z,75.50
2018-06-30T04:33:52.337Z,73.20
2018-06-30T04:36:55.808Z,70.50
2018-06-30T04:39:58.973Z,68.20
2018-06-30T04:43:02.620Z,66.70
2018-06-30T04:46:05.914Z,65.30
2018-06-30T04:49:09.070Z,63.40
2018-06-30T04:52:12.239Z,64.40
2018-06-30T04:55:15.408Z,64.20
2018-06-30T04:58:18.554Z,63.80
2018-06-30T05:01:21.731Z,63.90
2018-06-30T05:04:24.952Z,63.20
2018-06-30T05:07:28.125Z,63.90
2018-06-30T05:10:31.282Z,61.90
2018-06-30T05:13:34.434Z,63.20
2018-06-30T05:19:40.524Z,61.90
2018-06-30T05:22:43.695Z,63.00
2018-06-30T05:25:46.883Z,64.10
2018-06-30T05:28:50.019Z,64.20
2018-06-30T05:31:53.444Z,64.80
2018-06-30T05:34:56.605Z,63.90
2018-06-30T05:41:02.708Z,63.10
2018-06-30T05:44:05.861Z,60.30
2018-06-30T05:47:09.204Z,58.30
2018-06-30T05:50:12.355Z,58.10
2018-06-30T05:56:18.499Z,56.40
2018-06-30T05:59:21.702Z,54.10
2018-06-30T06:02:24.996Z,53.40
2018-06-30T06:05:28.182Z,54.90
2018-06-30T06:08:31.520Z,55.00
2018-06-30T06:11:34.956Z,54.00
2018-06-30T06:14:38.274Z,55.80
2018-06-30T06:17:41.439Z,58.10
2018-06-30T06:20:44.803Z,54.80
2018-06-30T06:23:47.979Z,53.50
2018-06-30T06:26:51.499Z,52.80
2018-06-30T06:29:54.775Z,51.90
2018-06-30T06:32:58.136Z,52.90
2018-06-30T06:36:01.308Z,54.30
2018-06-30T06:39:08.328Z,55.30
2018-06-30T06:42:11.471Z,54.90
2018-06-30T06:48:18.307Z,52.70
2018-06-30T06:51:21.475Z,54.00
2018-06-30T06:54:24.650Z,52.10
2018-06-30T06:57:27.808Z,51.00
2018-06-30T07:00:31.424Z,50.70
2018-06-30T07:03:34.572Z,51.30
2018-06-30T07:06:37.782Z,53.20
2018-06-30T07:09:40.954Z,54.00
2018-06-30T07:12:44.167Z,54.50
2018-06-30T07:15:47.338Z,53.00
2018-06-30T07:18:50.967Z,50.30
2018-06-30T07:21:54.255Z,47.30
2018-06-30T07:24:57.415Z,47.00
2018-06-30T07:28:00.588Z,46.40
2018-06-30T07:31:03.868Z,46.30
2018-06-30T07:34:07.056Z,48.30
2018-06-30T07:37:10.307Z,46.90
2018-06-30T07:40:13.471Z,43.90
2018-06-30T07:43:16.690Z,44.00
2018-06-30T07:46:19.816Z,44.40
2018-06-30T07:49:23.105Z,42.80
2018-06-30T07:52:26.266Z,42.80
2018-06-30T07:55:29.518Z,45.90
2018-06-30T07:58:32.768Z,45.30
2018-06-30T08:01:36.424Z,43.50
2018-06-30T08:04:39.595Z,42.30
2018-06-30T08:07:42.779Z,42.20
2018-06-30T08:10:46.201Z,39.40
2018-06-30T08:13:49.469Z,39.50
2018-06-30T08:16:52.581Z,39.80
2018-06-30T08:19:55.747Z,40.40
2018-06-30T08:22:59.077Z,40.40
2018-06-30T08:26:02.278Z,38.40
2018-06-30T08:29:05.582Z,39.60
2018-06-30T08:32:08.903Z,39.20
2018-06-30T08:35:12.271Z,38.30
2018-06-30T08:38:15.432Z,40.50
2018-06-30T08:41:18.596Z,40.40
2018-06-30T08:44:21.779Z,40.50
2018-06-30T08:47:24.957Z,41.00
2018-06-30T08:50:28.204Z,39.30
2018-06-30T08:53:31.396Z,38.40
2018-06-30T08:59:37.540Z,36.90
2018-06-30T09:02:40.706Z,37.10
2018-06-30T09:05:43.863Z,37.60
2018-06-30T09:08:47.048Z,38.10
2018-06-30T09:11:50.776Z,40.30
2018-06-30T09:14:53.982Z,39.20
2018-06-30T09:17:57.143Z,38.70
2018-06-30T09:21:00.712Z,38.60
2018-06-30T09:24:04.908Z,38.80
2018-06-30T09:27:08.150Z,37.50
2018-06-30T09:30:11.324Z,37.80
2018-06-30T09:33:14.500Z,38.70
2018-06-30T09:36:17.679Z,38.60
2018-06-30T09:39:20.844Z,38.80
2018-06-30T09:42:24.011Z,38.20
2018-06-30T09:45:27.224Z,37.90
2018-06-30T09:51:33.315Z,39.90
2018-06-30T09:54:36.482Z,38.70
2018-06-30T09:57:39.652Z,37.90
2018-06-30T10:00:48.297Z,36.20
2018-06-30T10:03:51.447Z,36.60
2018-06-30T10:06:54.749Z,36.20
2018-06-30T10:09:57.867Z,36.60
2018-06-30T10:13:01.041Z,35.10
2018-06-30T10:19:07.179Z,34.90
2018-06-30T10:22:10.368Z,35.40
2018-06-30T10:25:13.547Z,33.20
2018-06-30T10:28:16.710Z,33.90
2018-06-30T10:31:19.919Z,34.00
2018-06-30T10:34:23.048Z,34.20
2018-06-30T10:37:26.271Z,33.70
2018-06-30T10:40:29.747Z,33.20
2018-06-30T10:43:32.912Z,32.50
2018-06-30T10:46:36.170Z,31.80
2018-06-30T10:49:39.314Z,32.80
2018-06-30T10:52:42.512Z,32.90
2018-06-30T10:55:45.684Z,33.00
2018-06-30T10:58:48.864Z,33.20
2018-06-30T11:01:52.036Z,32.10
2018-06-30T11:07:58.362Z,29.60
2018-06-30T11:12:55.142Z,30.60
2018-06-30T11:15:58.306Z,31.10
2018-06-30T11:19:01.478Z,31.80
2018-06-30T11:22:04.636Z,32.10
2018-06-30T11:25:08.884Z,32.40
2018-06-30T11:28:12.823Z,32.50
2018-06-30T11:31:16.154Z,32.70
2018-06-30T11:34:19.430Z,31.30
2018-06-30T11:37:22.665Z,31.40
2018-06-30T11:40:25.992Z,31.40
2018-06-30T11:46:32.218Z,31.90
2018-06-30T11:49:35.414Z,32.50
2018-06-30T11:52:38.579Z,32.90
2018-06-30T11:55:41.771Z,34.00
2018-06-30T11:58:44.993Z,33.00
2018-06-30T12:01:48.159Z,33.90
2018-06-30T12:04:51.463Z,34.30
2018-06-30T12:07:54.610Z,34.10
2018-06-30T12:10:57.784Z,33.50
2018-06-30T12:14:01.197Z,32.30
2018-06-30T12:17:05.012Z,33.30
2018-06-30T12:20:08.198Z,32.90
2018-06-30T12:23:11.602Z,33.90
2018-06-30T12:26:14.784Z,33.80
2018-06-30T12:29:18.388Z,33.60
2018-06-30T12:32:21.693Z,33.00
2018-06-30T12:35:24.808Z,33.80
2018-06-30T12:38:28.069Z,33.20
2018-06-30T12:41:31.267Z,33.80
2018-06-30T12:44:34.538Z,33.90
2018-06-30T12:47:37.791Z,34.00
2018-06-30T12:50:40.988Z,33.30
2018-06-30T12:53:44.191Z,33.10
2018-06-30T12:56:47.496Z,33.90
2018-06-30T12:59:50.695Z,33.70
2018-06-30T13:02:54.124Z,33.80
2018-06-30T13:05:57.324Z,34.60
2018-06-30T13:09:00.634Z,34.80
2018-06-30T13:12:04.823Z,35.70
2018-06-30T13:15:08.711Z,35.10
2018-06-30T13:21:14.982Z,35.40
2018-06-30T13:24:18.269Z,34.90
2018-06-30T13:27:21.664Z,35.10
2018-06-30T13:30:24.985Z,33.90
2018-06-30T13:33:28.358Z,34.50
2018-06-30T13:36:31.558Z,33.90
2018-06-30T13:39:34.735Z,34.60
2018-06-30T13:42:38.952Z,35.00
2018-06-30T13:45:42.400Z,35.00
2018-06-30T13:48:45.603Z,35.20
2018-06-30T13:51:48.890Z,35.10
2018-06-30T13:54:52.312Z,33.80
2018-06-30T14:00:58.786Z,34.20
2018-06-30T14:04:02.359Z,33.90
2018-06-30T14:07:05.746Z,34.00
2018-06-30T14:10:09.636Z,33.30
2018-06-30T14:13:12.887Z,33.60
2018-06-30T14:16:16.077Z,33.10
2018-06-30T14:19:19.427Z,33.30
2018-06-30T14:22:22.840Z,33.10
2018-06-30T14:25:26.060Z,32.80
2018-06-30T14:28:29.474Z,33.30
2018-06-30T14:31:32.812Z,33.90
2018-06-30T14:34:36.227Z,33.20
2018-06-30T14:37:39.961Z,32.80
2018-06-30T14:40:43.088Z,33.00
2018-06-30T14:43:46.305Z,32.80
2018-06-30T14:46:49.459Z,33.30
2018-06-30T14:49:52.706Z,33.70
2018-06-30T14:52:56.086Z,34.30
2018-06-30T14:55:59.812Z,32.40
2018-06-30T14:59:03.048Z,32.50
2018-06-30T15:02:06.796Z,32.40
2018-06-30T15:05:11.207Z,32.50
2018-06-30T15:08:14.922Z,31.80
2018-06-30T15:11:18.262Z,31.90
2018-06-30T15:14:22.150Z,32.30
2018-06-30T15:17:25.698Z,32.20
2018-06-30T15:20:28.954Z,32.60
2018-06-30T15:23:32.309Z,32.60
2018-06-30T15:29:39.033Z,32.50
2018-06-30T15:32:42.860Z,32.20
2018-06-30T15:35:46.160Z,32.50
2018-06-30T15:38:49.370Z,32.90
2018-06-30T15:41:52.732Z,32.80
2018-06-30T15:44:56.170Z,32.60
2018-06-30T15:47:59.546Z,32.50
2018-06-30T15:51:02.736Z,32.30
2018-06-30T15:54:06.045Z,32.10
2018-06-30T15:57:09.607Z,32.40
2018-06-30T16:00:12.798Z,33.20
2018-06-30T16:03:16.204Z,33.30
2018-06-30T16:06:19.406Z,33.60
2018-06-30T16:09:23.038Z,33.10
2018-06-30T16:15:29.731Z,33.80
2018-06-30T16:18:32.962Z,34.10
2018-06-30T16:21:36.580Z,34.20
2018-06-30T16:24:39.731Z,34.60
2018-06-30T16:27:42.915Z,34.30
2018-06-30T16:30:46.074Z,35.00
2018-06-30T16:33:49.307Z,35.10
2018-06-30T16:36:52.568Z,34.50
2018-06-30T16:39:55.730Z,35.10
2018-06-30T16:42:58.911Z,35.20
2018-06-30T16:46:02.085Z,34.90
2018-06-30T16:49:05.348Z,34.90
2018-06-30T16:52:08.561Z,34.40
2018-06-30T16:58:14.667Z,34.90
2018-06-30T17:01:17.850Z,34.70
2018-06-30T17:04:21.115Z,35.20
2018-06-30T17:07:24.281Z,35.30
2018-06-30T17:10:27.728Z,35.00
2018-06-30T17:13:30.891Z,34.90
2018-06-30T17:16:34.104Z,34.50
2018-06-30T17:19:37.284Z,33.60
2018-06-30T17:22:40.456Z,33.90
2018-06-30T17:25:43.678Z,34.50
2018-06-30T17:28:46.812Z,34.20
2018-06-30T17:31:50.506Z,34.40
2018-06-30T17:34:53.679Z,35.00
2018-06-30T17:37:56.870Z,34.50
2018-06-30T17:41:00.028Z,34.70
2018-06-30T17:44:03.187Z,35.50
2018-06-30T17:47:06.372Z,36.10
2018-06-30T17:50:10.060Z,35.90
2018-06-30T17:53:13.556Z,36.00
2018-06-30T17:56:16.727Z,35.70
2018-06-30T17:59:20.050Z,35.80
2018-06-30T18:02:23.287Z,35.60
2018-06-30T18:05:26.452Z,35.20
2018-06-30T18:08:29.619Z,35.30
2018-06-30T18:11:32.801Z,35.60
2018-06-30T18:14:35.966Z,36.00
2018-06-30T18:17:39.128Z,36.40
2018-06-30T18:20:42.289Z,36.50
2018-06-30T18:23:45.474Z,36.90
2018-06-30T18:26:48.631Z,36.70
2018-06-30T18:29:51.809Z,36.70
2018-06-30T18:32:55.003Z,36.60
2018-06-30T18:35:58.169Z,36.70
2018-06-30T18:39:01.357Z,36.40
2018-06-30T18:42:04.630Z,36.30
2018-06-30T18:45:07.816Z,36.20
2018-06-30T18:48:10.998Z,36.00
2018-06-30T18:51:14.193Z,35.40
2018-06-30T18:54:17.412Z,35.80
2018-06-30T18:57:20.589Z,35.90
2018-06-30T19:00:23.761Z,35.90
2018-06-30T19:03:26.914Z,36.00
2018-06-30T19:06:30.096Z,36.30
2018-06-30T19:09:33.319Z,36.40
2018-06-30T19:12:36.510Z,36.50
2018-06-30T19:15:39.716Z,36.40
2018-06-30T19:18:42.887Z,36.80
2018-06-30T19:21:46.056Z,37.00
2018-06-30T19:24:49.217Z,37.00
2018-06-30T19:27:52.366Z,37.00
2018-06-30T19:30:55.547Z,37.10
2018-06-30T19:33:58.720Z,37.30
2018-06-30T19:37:01.907Z,37.60
2018-06-30T19:40:05.343Z,37.70
2018-06-30T19:43:08.548Z,37.90
2018-06-30T19:46:11.718Z,38.30
2018-06-30T19:49:14.870Z,38.70
2018-06-30T19:52:18.036Z,38.70
2018-06-30T19:55:21.206Z,38.90
2018-06-30T19:58:24.400Z,39.30
2018-06-30T20:01:27.625Z,39.50
2018-06-30T20:04:30.790Z,39.60
2018-06-30T20:07:38.253Z,39.90
2018-06-30T20:13:44.340Z,40.30
2018-06-30T20:16:47.502Z,40.50
2018-06-30T20:19:50.679Z,40.90
2018-06-30T20:22:53.982Z,41.10
2018-06-30T20:25:57.127Z,41.30
2018-06-30T20:29:00.298Z,41.50
2018-06-30T20:32:03.507Z,41.80
2018-06-30T20:35:06.666Z,42.10
2018-06-30T20:38:09.853Z,42.50
2018-06-30T20:41:13.135Z,42.60
2018-06-30T20:44:16.310Z,43.00
2018-06-30T20:47:19.473Z,43.30
2018-06-30T20:50:22.646Z,43.60
2018-06-30T20:53:25.823Z,43.80
2018-06-30T20:56:29.432Z,44.10
2018-06-30T21:02:35.516Z,44.40
2018-06-30T21:05:38.746Z,44.70
2018-06-30T21:08:41.968Z,45.00
2018-06-30T21:11:45.119Z,45.20
2018-06-30T21:14:48.287Z,45.50
2018-06-30T21:17:51.470Z,45.50
2018-06-30T21:20:54.642Z,45.70
2018-06-30T21:23:57.905Z,46.00
2018-06-30T21:27:01.087Z,46.10
2018-06-30T21:30:04.591Z,46.30
2018-06-30T21:33:07.763Z,46.70
2018-06-30T21:36:10.926Z,46.70
2018-06-30T21:39:14.683Z,47.00
2018-06-30T21:42:17.842Z,47.10
2018-06-30T21:45:21.015Z,47.30
2018-06-30T21:48:24.179Z,47.40
2018-06-30T21:51:27.359Z,47.50
2018-06-30T21:54:30.522Z,47.70
2018-06-30T21:57:33.862Z,47.60
2018-06-30T22:00:50.192Z,47.70
2018-06-30T22:03:54.361Z,47.90
2018-06-30T22:06:57.518Z,47.90
2018-06-30T22:10:00.676Z,48.10
2018-06-30T22:13:03.861Z,48.40
2018-06-30T22:16:07.064Z,48.60
2018-06-30T22:19:10.231Z,48.60
2018-06-30T22:22:13.408Z,48.80
2018-06-30T22:25:16.554Z,49.00
2018-06-30T22:28:19.806Z,49.10
2018-06-30T22:31:23.264Z,49.10
2018-06-30T22:34:26.432Z,49.30
2018-06-30T22:37:29.603Z,49.40
2018-06-30T22:40:32.767Z,49.40
2018-06-30T22:43:36.220Z,49.40
2018-06-30T22:46:39.390Z,49.50
2018-06-30T22:49:42.591Z,49.60
2018-06-30T22:52:45.767Z,49.60
2018-06-30T22:55:48.938Z,49.60
2018-06-30T22:58:52.123Z,49.90
2018-06-30T23:01:55.298Z,49.80
2018-06-30T23:04:58.456Z,49.90
2018-06-30T23:08:01.858Z,50.20
2018-06-30T23:11:05.015Z,50.30
2018-06-30T23:14:08.200Z,50.30
2018-06-30T23:20:14.335Z,50.10
2018-06-30T23:23:17.611Z,50.00
2018-06-30T23:26:20.764Z,49.80
2018-06-30T23:29:23.966Z,49.60
2018-06-30T23:32:27.124Z,49.60
2018-06-30T23:35:31.102Z,49.70
2018-06-30T23:38:34.271Z,49.90
2018-06-30T23:41:37.434Z,50.10
2018-06-30T23:44:40.661Z,50.10
2018-06-30T23:47:43.809Z,49.90
2018-06-30T23:50:46.976Z,50.10
2018-06-30T23:53:50.164Z,50.10
2018-06-30T23:56:53.319Z,50.40
2018-06-30T23:59:56.612Z,50.50
